TimeCAT,TemperatureF,Dew PointF,Humidity,Sea Level PressureIn,VisibilityMPH,Wind Direction,Wind SpeedMPH,Gust SpeedMPH,PrecipitationIn,Events,Conditions,WindDirDegrees,DateUTC
5:00 AM,47,39,66,,6,ESE,5.8,,,,Clear,110,2013-07-15 03:00:00
5:00 AM,48.2,39.2,71,30.18,-9999.0,ESE,5.8,-,N/A,,Clear,110,2013-07-15 03:00:00
6:00 AM,51.8,41.0,67,30.21,-9999.0,East,4.6,-,N/A,,Clear,100,2013-07-15 04:00:00
7:00 AM,48.2,41.0,76,30.21,-9999.0,SE,3.5,-,N/A,,Clear,140,2013-07-15 05:00:00
8:00 AM,54,45,62,,6,ESE,4.6,,,,Partly Cloudy,120,2013-07-15 06:00:00
8:00 AM,55.4,44.6,67,30.24,-9999.0,ESE,4.6,-,N/A,,Clear,120,2013-07-15 06:00:00
9:00 AM,66.2,42.8,43,30.24,-9999.0,East,6.9,-,N/A,,Clear,80,2013-07-15 07:00:00
10:00 AM,71.6,44.6,38,30.27,-9999.0,NE,9.2,-,N/A,,Clear,50,2013-07-15 08:00:00
11:00 AM,73.4,41.0,31,30.24,-9999.0,NE,11.5,-,N/A,,Clear,50,2013-07-15 09:00:00
12:00 PM,75.2,42.8,31,30.24,-9999.0,SSW,2.3,-,N/A,,Clear,200,2013-07-15 10:00:00
1:00 PM,75.2,42.8,31,30.18,-9999.0,East,6.9,-,N/A,,Clear,90,2013-07-15 11:00:00
2:00 PM,77,41,17,,6,ENE,4.6,,,,Smoke,60,2013-07-15 12:00:00
2:00 PM,77.0,41.0,28,30.15,-9999.0,ENE,4.6,-,N/A,,Clear,60,2013-07-15 12:00:00
3:00 PM,78.8,44.6,30,30.12,-9999.0,WNW,5.8,-,N/A,,Clear,300,2013-07-15 13:00:00
4:00 PM,77.0,42.8,29,30.12,-9999.0,ENE,9.2,-,N/A,,Clear,70,2013-07-15 14:00:00
5:00 PM,76,39,16,,6,ESE,24.6,,,,Smoke,110,2013-07-15 15:00:00
5:00 PM,77.0,39.2,26,30.12,-9999.0,ESE,12.7,-,N/A,,Clear,110,2013-07-15 15:00:00
6:00 PM,73.4,32.0,22,30.12,-9999.0,East,11.5,-,N/A,,Clear,90,2013-07-15 16:00:00
7:00 PM,69.8,39.2,33,30.15,-9999.0,ESE,9.2,-,N/A,,Clear,120,2013-07-15 17:00:00
8:00 PM,64.4,39.2,40,30.15,-9999.0,ESE,6.9,-,N/A,,Clear,120,2013-07-15 18:00:00